createdAt,value
2022-10-26T00:02:24.089Z,66.60
2022-10-26T00:04:52.042Z,66.74
2022-10-26T00:07:19.979Z,67.11
2022-10-26T00:09:49.327Z,67.19
2022-10-26T00:12:17.265Z,66.99
2022-10-26T00:14:45.255Z,66.92
2022-10-26T00:17:13.172Z,66.70
2022-10-26T00:19:41.302Z,66.66
2022-10-26T00:22:09.325Z,65.82
2022-10-26T00:24:37.340Z,66.18
2022-10-26T00:27:06.570Z,65.72
2022-10-26T00:29:34.519Z,65.86
2022-10-26T00:32:02.824Z,66.09
2022-10-26T00:34:31.213Z,66.32
2022-10-26T00:36:59.941Z,66.38
2022-10-26T00:39:27.865Z,66.31
2022-10-26T00:41:55.853Z,66.48
2022-10-26T00:45:01.976Z,66.02
2022-10-26T00:47:37.054Z,65.93
2022-10-26T00:50:09.259Z,66.06
2022-10-26T00:52:38.471Z,66.70
2022-10-26T00:55:08.563Z,66.52
2022-10-26T00:57:38.656Z,66.16
2022-10-26T01:00:09.965Z,66.28
2022-10-26T01:02:38.068Z,65.74
2022-10-26T01:05:07.460Z,65.71
2022-10-26T01:07:35.878Z,66.27
2022-10-26T01:10:03.957Z,66.24
2022-10-26T01:12:32.132Z,66.21
2022-10-26T01:15:00.298Z,66.22
2022-10-26T01:17:42.136Z,66.48
2022-10-26T01:20:40.392Z,66.34
2022-10-26T01:23:17.164Z,66.07
2022-10-26T01:26:17.603Z,66.02
2022-10-26T01:29:08.145Z,66.24
2022-10-26T01:31:43.249Z,66.28
2022-10-26T01:34:17.791Z,66.11
2022-10-26T01:36:53.975Z,65.69
2022-10-26T01:39:28.396Z,65.27
2022-10-26T01:42:01.161Z,65.54
2022-10-26T01:44:33.729Z,65.39
2022-10-26T01:47:05.277Z,65.26
2022-10-26T01:49:37.963Z,65.08
2022-10-26T01:52:06.529Z,64.90
2022-10-26T01:57:13.878Z,64.86
2022-10-26T01:59:57.684Z,64.61
2022-10-26T02:02:42.958Z,64.72
2022-10-26T02:05:34.176Z,65.13
2022-10-26T02:08:24.563Z,65.52
2022-10-26T02:11:11.205Z,65.39
2022-10-26T02:13:44.651Z,65.66
2022-10-26T02:16:21.891Z,65.63
2022-10-26T02:18:57.417Z,65.67
2022-10-26T02:21:32.551Z,65.39
2022-10-26T02:24:00.766Z,65.27
2022-10-26T02:26:31.360Z,65.50
2022-10-26T02:29:03.869Z,65.26
2022-10-26T02:31:33.826Z,64.84
2022-10-26T02:34:08.314Z,64.73
2022-10-26T02:36:40.011Z,64.49
2022-10-26T02:39:10.396Z,63.85
2022-10-26T02:41:40.597Z,64.26
2022-10-26T02:44:14.326Z,64.41
2022-10-26T02:46:43.596Z,64.44
2022-10-26T02:49:13.778Z,64.71
2022-10-26T02:54:26.387Z,64.17
2022-10-26T02:56:59.124Z,64.11
2022-10-26T02:59:31.722Z,64.02
2022-10-26T03:01:59.736Z,63.44
2022-10-26T03:04:34.422Z,63.69
2022-10-26T03:07:03.466Z,64.01
2022-10-26T03:09:31.444Z,63.97
2022-10-26T03:11:59.619Z,63.99
2022-10-26T03:14:27.751Z,63.69
2022-10-26T03:16:55.781Z,63.64
2022-10-26T03:19:23.961Z,63.70
2022-10-26T03:21:53.222Z,63.53
2022-10-26T03:24:21.073Z,63.52
2022-10-26T03:26:48.925Z,63.34
2022-10-26T03:29:16.943Z,63.42
2022-10-26T03:31:44.840Z,63.31
2022-10-26T03:34:13.962Z,63.27
2022-10-26T03:36:41.857Z,63.14
2022-10-26T03:39:11.186Z,63.08
2022-10-26T03:41:39.035Z,63.24
2022-10-26T03:44:06.969Z,62.92
2022-10-26T03:46:35.062Z,62.49
2022-10-26T03:49:02.955Z,63.01
2022-10-26T03:51:31.063Z,63.61
2022-10-26T03:53:58.973Z,63.23
2022-10-26T03:56:28.539Z,63.26
2022-10-26T03:58:56.482Z,62.83
2022-10-26T04:01:24.610Z,63.11
2022-10-26T04:03:52.528Z,63.34
2022-10-26T04:06:20.556Z,63.31
2022-10-26T04:08:48.511Z,63.27
2022-10-26T04:11:16.448Z,63.21
2022-10-26T04:13:45.736Z,63.46
2022-10-26T04:16:13.597Z,63.25
2022-10-26T04:18:41.476Z,63.47
2022-10-26T04:21:09.309Z,63.58
2022-10-26T04:23:37.159Z,63.35
2022-10-26T04:26:06.649Z,63.50
2022-10-26T04:28:35.251Z,63.35
2022-10-26T04:31:04.656Z,63.57
2022-10-26T04:33:33.031Z,63.31
2022-10-26T04:36:02.069Z,63.43
2022-10-26T04:38:30.221Z,63.62
2022-10-26T04:40:58.321Z,63.63
2022-10-26T04:43:26.410Z,63.72
2022-10-26T04:45:57.432Z,63.70
2022-10-26T04:48:27.018Z,63.20
2022-10-26T04:50:54.974Z,63.71
2022-10-26T04:53:22.829Z,63.91
2022-10-26T04:55:50.670Z,63.93
2022-10-26T04:58:18.517Z,64.09
2022-10-26T05:00:46.456Z,64.33
2022-10-26T05:03:14.309Z,63.68
2022-10-26T05:05:43.769Z,63.64
2022-10-26T05:08:11.675Z,64.02
2022-10-26T05:10:39.598Z,63.58
2022-10-26T05:13:07.674Z,64.01
2022-10-26T05:15:35.690Z,64.54
2022-10-26T05:18:06.534Z,65.24
2022-10-26T05:20:36.173Z,65.70
2022-10-26T05:23:07.414Z,65.71
2022-10-26T05:25:37.859Z,66.53
2022-10-26T05:28:08.073Z,66.91
2022-10-26T05:30:36.515Z,67.45
2022-10-26T05:33:04.424Z,67.03
2022-10-26T05:35:33.884Z,66.76
2022-10-26T05:38:09.740Z,67.00
2022-10-26T05:40:38.146Z,67.04
2022-10-26T05:43:06.194Z,66.70
2022-10-26T05:45:34.048Z,66.49
2022-10-26T05:48:03.042Z,66.71
2022-10-26T05:50:31.540Z,66.75
2022-10-26T05:52:59.629Z,66.13
2022-10-26T05:55:29.707Z,66.20
2022-10-26T05:57:58.129Z,66.33
2022-10-26T06:00:28.664Z,66.45
2022-10-26T06:03:08.763Z,66.47
2022-10-26T06:05:39.893Z,66.62
2022-10-26T06:08:11.417Z,66.23
2022-10-26T06:10:41.669Z,66.30
2022-10-26T06:13:10.062Z,65.91
2022-10-26T06:15:48.166Z,65.49
2022-10-26T06:18:26.829Z,65.26
2022-10-26T06:21:11.258Z,65.43
2022-10-26T06:23:49.898Z,65.68
2022-10-26T06:26:31.228Z,66.04
2022-10-26T06:29:11.235Z,66.18
2022-10-26T06:31:39.212Z,65.90
2022-10-26T06:34:07.211Z,65.97
2022-10-26T06:36:36.107Z,65.78
2022-10-26T06:39:07.968Z,65.43
2022-10-26T06:41:38.142Z,65.49
2022-10-26T06:44:07.112Z,65.67
2022-10-26T06:46:42.774Z,66.16
2022-10-26T06:49:21.077Z,65.71
2022-10-26T06:51:54.622Z,65.69
2022-10-26T06:54:25.677Z,65.55
2022-10-26T06:56:55.758Z,66.10
2022-10-26T06:59:33.890Z,66.27
2022-10-26T07:02:05.597Z,66.45
2022-10-26T07:04:34.834Z,66.14
2022-10-26T07:07:03.042Z,66.21
2022-10-26T07:09:31.135Z,66.59
2022-10-26T07:12:00.819Z,66.57
2022-10-26T07:14:28.767Z,66.70
2022-10-26T07:16:57.040Z,66.96
2022-10-26T07:19:25.153Z,67.05
2022-10-26T07:21:56.617Z,67.06
2022-10-26T07:24:24.624Z,66.70
2022-10-26T07:26:54.621Z,67.06
2022-10-26T07:29:24.377Z,67.04
2022-10-26T07:34:22.023Z,66.86
2022-10-26T07:36:51.695Z,66.81
2022-10-26T07:39:22.140Z,67.03
2022-10-26T07:41:50.345Z,67.17
2022-10-26T07:44:18.291Z,67.47
2022-10-26T07:46:47.475Z,67.54
2022-10-26T07:49:19.144Z,67.60
2022-10-26T07:51:47.602Z,67.72
2022-10-26T07:54:15.538Z,67.73
2022-10-26T07:56:43.441Z,67.83
2022-10-26T07:59:13.126Z,67.75
2022-10-26T08:01:41.334Z,67.71
2022-10-26T08:04:10.913Z,67.63
2022-10-26T08:06:38.976Z,67.50
2022-10-26T08:09:07.171Z,67.39
2022-10-26T08:11:37.031Z,67.24
2022-10-26T08:14:05.869Z,67.68
2022-10-26T08:16:34.905Z,67.86
2022-10-26T08:19:02.952Z,67.60
2022-10-26T08:21:39.551Z,67.74
2022-10-26T08:24:08.666Z,67.42
2022-10-26T08:26:36.748Z,67.74
2022-10-26T08:29:04.829Z,68.25
2022-10-26T08:31:32.735Z,68.33
2022-10-26T08:34:01.815Z,68.29
2022-10-26T08:36:30.092Z,68.35
2022-10-26T08:41:37.946Z,68.32
2022-10-26T08:44:21.679Z,67.96
2022-10-26T08:46:54.493Z,68.01
2022-10-26T08:49:26.256Z,68.73
2022-10-26T08:51:58.938Z,68.38
2022-10-26T08:54:37.283Z,68.60
2022-10-26T08:57:15.809Z,68.57
2022-10-26T08:59:50.287Z,68.40
2022-10-26T09:02:18.986Z,68.43
2022-10-26T09:04:47.158Z,68.39
2022-10-26T09:07:27.246Z,68.51
2022-10-26T09:10:05.421Z,68.13
2022-10-26T09:12:47.211Z,67.99
2022-10-26T09:15:23.805Z,67.95
2022-10-26T09:17:59.144Z,68.12
2022-10-26T09:20:49.071Z,68.04
2022-10-26T09:23:30.372Z,67.91
2022-10-26T09:26:02.436Z,68.10
2022-10-26T09:28:36.635Z,68.12
2022-10-26T09:31:05.852Z,67.95
2022-10-26T09:33:38.863Z,67.56
2022-10-26T09:36:11.982Z,67.71
2022-10-26T09:38:47.769Z,67.42
2022-10-26T09:41:26.101Z,66.91
2022-10-26T09:44:02.796Z,67.25
2022-10-26T09:46:35.775Z,67.25
2022-10-26T09:49:07.752Z,66.32
2022-10-26T09:51:38.040Z,66.56
2022-10-26T09:54:14.809Z,66.33
2022-10-26T09:56:45.889Z,65.48
2022-10-26T09:59:15.792Z,65.58
2022-10-26T10:01:43.901Z,65.54
2022-10-26T10:04:20.203Z,65.28
2022-10-26T10:06:49.473Z,65.26
2022-10-26T10:09:19.315Z,65.18
2022-10-26T10:11:55.360Z,64.86
2022-10-26T10:14:25.319Z,64.97
2022-10-26T10:16:56.144Z,64.41
2022-10-26T10:19:27.935Z,64.75
2022-10-26T10:21:58.721Z,64.74
2022-10-26T10:24:29.259Z,64.93
2022-10-26T10:27:01.275Z,64.86
2022-10-26T10:29:31.053Z,64.03
2022-10-26T10:32:01.026Z,63.56
2022-10-26T10:34:31.924Z,63.09
2022-10-26T10:37:01.862Z,63.15
2022-10-26T10:39:39.654Z,63.86
2022-10-26T10:42:19.659Z,63.88
2022-10-26T10:44:52.292Z,63.94
2022-10-26T10:47:24.063Z,64.00
2022-10-26T10:49:55.722Z,63.72
2022-10-26T10:52:27.403Z,63.67
2022-10-26T10:55:08.940Z,63.63
2022-10-26T10:57:52.507Z,63.96
2022-10-26T11:00:25.673Z,64.04
2022-10-26T11:03:16.714Z,64.27
2022-10-26T11:05:55.521Z,64.33
2022-10-26T11:08:30.117Z,64.26
2022-10-26T11:11:02.891Z,64.09
2022-10-26T11:13:38.355Z,64.25
2022-10-26T11:16:13.592Z,63.59
2022-10-26T11:18:45.588Z,63.63
2022-10-26T11:21:24.274Z,63.57
2022-10-26T11:24:01.764Z,63.34
2022-10-26T11:26:34.961Z,62.95
2022-10-26T11:29:08.523Z,62.83
2022-10-26T11:31:41.388Z,63.01
2022-10-26T11:34:20.795Z,62.74
2022-10-26T11:36:55.058Z,63.30
2022-10-26T11:39:32.972Z,63.32
2022-10-26T11:42:05.425Z,63.39
2022-10-26T11:44:41.025Z,63.63
2022-10-26T11:47:15.984Z,63.72
2022-10-26T11:49:49.215Z,63.14
2022-10-26T11:52:23.747Z,63.30
2022-10-26T11:54:55.750Z,62.81
2022-10-26T11:57:25.009Z,63.09
2022-10-26T11:59:57.062Z,62.56
2022-10-26T12:02:26.972Z,62.64
2022-10-26T12:05:00.166Z,62.81
2022-10-26T12:07:32.471Z,62.14
2022-10-26T12:10:02.674Z,62.32
2022-10-26T12:12:39.397Z,61.54
2022-10-26T12:15:24.833Z,61.25
2022-10-26T12:18:07.342Z,61.30
2022-10-26T12:21:02.846Z,62.22
2022-10-26T12:26:39.930Z,62.07
2022-10-26T12:29:29.367Z,61.90
2022-10-26T12:32:00.535Z,62.09
2022-10-26T12:34:58.713Z,61.82
2022-10-26T12:37:36.933Z,61.38
2022-10-26T12:40:43.829Z,61.54
2022-10-26T12:43:37.856Z,61.75
2022-10-26T12:46:39.015Z,61.34
2022-10-26T12:49:45.842Z,62.79
2022-10-26T12:52:29.066Z,62.77
2022-10-26T12:55:41.533Z,63.77
2022-10-26T12:58:46.777Z,64.28
2022-10-26T13:04:38.846Z,65.26
2022-10-26T13:07:29.036Z,64.77
2022-10-26T13:10:02.386Z,63.99
2022-10-26T13:12:39.705Z,63.60
2022-10-26T13:15:21.625Z,63.83
2022-10-26T13:18:08.968Z,63.42
2022-10-26T13:20:52.357Z,64.44
2022-10-26T13:23:26.778Z,64.65
2022-10-26T13:26:12.058Z,65.67
2022-10-26T13:28:51.982Z,65.74
2022-10-26T13:31:57.018Z,65.72
2022-10-26T13:34:28.637Z,65.88
2022-10-26T13:37:17.072Z,65.84
2022-10-26T13:39:47.601Z,66.30
2022-10-26T13:42:19.298Z,66.46
2022-10-26T13:44:53.782Z,66.54
2022-10-26T13:47:28.322Z,66.79
2022-10-26T13:50:05.182Z,67.16
2022-10-26T13:52:38.079Z,66.80
2022-10-26T13:55:11.147Z,66.28
2022-10-26T13:57:43.893Z,66.81
2022-10-26T14:00:20.351Z,66.81
2022-10-26T14:02:48.777Z,66.73
2022-10-26T14:05:19.594Z,66.90
2022-10-26T14:07:55.865Z,67.41
2022-10-26T14:10:28.930Z,67.20
2022-10-26T14:12:57.203Z,67.52
2022-10-26T14:15:27.934Z,67.63
2022-10-26T14:17:56.935Z,67.84
2022-10-26T14:20:27.371Z,67.47
2022-10-26T14:22:57.009Z,67.87
2022-10-26T14:25:36.220Z,67.72
2022-10-26T14:28:22.898Z,67.25
2022-10-26T14:30:52.296Z,67.65
2022-10-26T14:33:21.682Z,66.94
2022-10-26T14:35:50.295Z,67.03
2022-10-26T14:38:26.429Z,66.45
2022-10-26T14:40:57.252Z,66.03
2022-10-26T14:43:26.910Z,66.21
2022-10-26T14:45:56.826Z,66.22
2022-10-26T14:48:30.016Z,65.94
2022-10-26T14:50:58.950Z,66.38
2022-10-26T14:53:35.527Z,67.07
2022-10-26T14:56:06.772Z,67.43
2022-10-26T14:58:36.136Z,67.26
2022-10-26T15:01:18.483Z,67.02
2022-10-26T15:03:49.773Z,67.09
2022-10-26T15:06:34.326Z,67.11
2022-10-26T15:09:06.805Z,67.17
2022-10-26T15:11:36.524Z,67.17
2022-10-26T15:14:04.632Z,67.19
2022-10-26T15:16:36.097Z,67.36
2022-10-26T15:19:10.808Z,67.39
2022-10-26T15:21:41.087Z,67.18
2022-10-26T15:24:36.057Z,67.68
2022-10-26T15:27:15.757Z,67.56
2022-10-26T15:29:45.571Z,68.41
2022-10-26T15:32:29.790Z,68.24
2022-10-26T15:35:25.406Z,68.15
2022-10-26T15:37:55.665Z,68.35
2022-10-26T15:42:55.179Z,67.70
2022-10-26T15:45:24.701Z,68.92
2022-10-26T15:47:54.667Z,68.77
2022-10-26T15:50:24.976Z,68.25
2022-10-26T15:53:00.965Z,68.52
2022-10-26T15:55:32.264Z,68.65
2022-10-26T15:58:00.145Z,69.24
2022-10-26T16:00:28.583Z,69.33
2022-10-26T16:02:57.073Z,69.74
2022-10-26T16:05:25.073Z,70.11
2022-10-26T16:07:53.232Z,69.66
2022-10-26T16:10:25.841Z,69.32
2022-10-26T16:12:55.529Z,70.05
2022-10-26T16:15:25.460Z,69.93
2022-10-26T16:17:54.006Z,69.88
2022-10-26T16:20:24.395Z,69.44
2022-10-26T16:22:53.814Z,69.76
2022-10-26T16:25:24.434Z,70.14
2022-10-26T16:27:53.400Z,70.03
2022-10-26T16:30:25.905Z,70.12
2022-10-26T16:32:56.269Z,69.49
2022-10-26T16:35:24.647Z,69.33
2022-10-26T16:37:52.838Z,69.56
2022-10-26T16:40:20.868Z,70.00
2022-10-26T16:42:49.233Z,70.11
2022-10-26T16:45:17.739Z,70.31
2022-10-26T16:47:47.751Z,70.40
2022-10-26T16:50:16.598Z,70.57
2022-10-26T16:52:47.409Z,69.79
2022-10-26T16:55:15.606Z,69.85
2022-10-26T16:57:43.495Z,69.88
2022-10-26T17:00:12.311Z,70.45
2022-10-26T17:02:41.059Z,70.26
2022-10-26T17:05:10.847Z,70.64
2022-10-26T17:07:38.871Z,70.58
2022-10-26T17:10:10.119Z,70.55
2022-10-26T17:12:37.981Z,70.38
2022-10-26T17:15:09.653Z,69.92
2022-10-26T17:17:37.810Z,69.98
2022-10-26T17:20:07.171Z,70.48
2022-10-26T17:22:36.384Z,70.77
2022-10-26T17:25:04.585Z,70.75
2022-10-26T17:27:33.530Z,71.00
2022-10-26T17:30:02.852Z,70.61
2022-10-26T17:32:32.150Z,70.88
2022-10-26T17:35:02.335Z,70.72
2022-10-26T17:37:30.766Z,70.52
2022-10-26T17:40:00.422Z,70.92
2022-10-26T17:42:28.534Z,70.75
2022-10-26T17:44:56.614Z,70.43
2022-10-26T17:47:24.576Z,70.69
2022-10-26T17:49:52.532Z,70.19
2022-10-26T17:52:20.614Z,70.64
2022-10-26T17:54:48.505Z,70.39
2022-10-26T17:57:17.808Z,70.45
2022-10-26T17:59:45.780Z,70.62
2022-10-26T18:02:14.177Z,70.46
2022-10-26T18:04:42.399Z,70.65
2022-10-26T18:07:10.354Z,70.45
2022-10-26T18:09:38.413Z,70.72
2022-10-26T18:12:07.507Z,70.72
2022-10-26T18:14:37.214Z,70.75
2022-10-26T18:17:05.304Z,70.88
2022-10-26T18:19:34.090Z,70.81
2022-10-26T18:22:02.866Z,70.82
2022-10-26T18:24:31.078Z,71.31
2022-10-26T18:26:59.452Z,71.31
2022-10-26T18:29:27.486Z,71.25
2022-10-26T18:31:56.951Z,71.69
2022-10-26T18:34:25.150Z,71.84
2022-10-26T18:36:54.485Z,71.75
2022-10-26T18:39:22.469Z,71.78
2022-10-26T18:41:50.832Z,71.71
2022-10-26T18:44:19.755Z,71.29
2022-10-26T18:46:51.880Z,71.38
2022-10-26T18:49:21.427Z,71.41
2022-10-26T18:51:49.496Z,71.32
2022-10-26T18:54:17.426Z,71.08
2022-10-26T18:56:45.466Z,71.72
2022-10-26T18:59:13.698Z,71.37
2022-10-26T19:01:42.421Z,71.51
2022-10-26T19:04:11.601Z,71.36
2022-10-26T19:06:45.106Z,71.85
2022-10-26T19:09:12.896Z,71.39
2022-10-26T19:11:42.382Z,71.42
2022-10-26T19:14:10.387Z,71.27
2022-10-26T19:16:47.454Z,71.72
2022-10-26T19:19:17.059Z,71.76
2022-10-26T19:21:47.258Z,71.81
2022-10-26T19:24:18.041Z,72.08
2022-10-26T19:26:47.162Z,71.79
2022-10-26T19:29:16.862Z,71.92
2022-10-26T19:31:46.421Z,71.71
2022-10-26T19:34:16.540Z,71.57
2022-10-26T19:36:47.293Z,71.82
2022-10-26T19:39:16.773Z,71.79
2022-10-26T19:41:46.202Z,71.82
2022-10-26T19:44:15.448Z,71.56
2022-10-26T19:46:44.275Z,71.50
2022-10-26T19:49:13.507Z,71.47
2022-10-26T19:51:41.580Z,71.12
2022-10-26T19:54:10.854Z,70.97
2022-10-26T19:56:39.521Z,71.15
2022-10-26T19:59:09.376Z,71.30
2022-10-26T20:01:37.648Z,71.29
2022-10-26T20:04:06.343Z,71.06
2022-10-26T20:06:36.755Z,71.15
2022-10-26T20:09:05.898Z,71.21
2022-10-26T20:11:38.107Z,71.77
2022-10-26T20:14:07.629Z,71.76
2022-10-26T20:16:35.816Z,71.80
2022-10-26T20:19:05.218Z,70.91
2022-10-26T20:21:33.774Z,71.44
2022-10-26T20:24:02.474Z,71.41
2022-10-26T20:26:31.886Z,71.29
2022-10-26T20:29:04.226Z,71.33
2022-10-26T20:31:32.721Z,71.14
2022-10-26T20:34:00.758Z,71.22
2022-10-26T20:36:28.661Z,71.26
2022-10-26T20:38:58.023Z,71.09
2022-10-26T20:41:27.211Z,71.28
2022-10-26T20:43:57.988Z,71.85
2022-10-26T20:46:29.127Z,71.62
2022-10-26T20:48:57.738Z,71.95
2022-10-26T20:51:47.601Z,72.52
2022-10-26T20:54:30.300Z,72.05
2022-10-26T20:57:01.773Z,72.51
2022-10-26T20:59:36.728Z,72.05
2022-10-26T21:02:06.415Z,72.19
2022-10-26T21:04:34.472Z,71.81
2022-10-26T21:07:02.661Z,72.03
2022-10-26T21:09:32.938Z,71.86
2022-10-26T21:12:04.650Z,71.64
2022-10-26T21:14:35.821Z,71.79
2022-10-26T21:17:03.642Z,71.58
2022-10-26T21:19:32.955Z,71.50
2022-10-26T21:22:01.416Z,71.74
2022-10-26T21:24:29.785Z,72.29
2022-10-26T21:26:57.751Z,71.99
2022-10-26T21:29:25.670Z,72.10
2022-10-26T21:31:53.548Z,72.38
2022-10-26T21:34:21.395Z,72.73
2022-10-26T21:36:50.567Z,73.01
2022-10-26T21:39:18.445Z,72.53
2022-10-26T21:41:46.303Z,72.74
2022-10-26T21:44:25.982Z,72.42
2022-10-26T21:47:02.027Z,72.46
2022-10-26T21:49:29.917Z,72.86
2022-10-26T21:51:59.159Z,72.66
2022-10-26T21:54:27.149Z,72.97
2022-10-26T21:56:55.137Z,72.96
2022-10-26T21:59:23.012Z,72.87
2022-10-26T22:01:51.086Z,72.76
2022-10-26T22:04:19.039Z,72.90
2022-10-26T22:06:46.870Z,72.97
2022-10-26T22:09:16.105Z,72.76
2022-10-26T22:11:43.995Z,72.58
2022-10-26T22:14:13.589Z,72.35
2022-10-26T22:16:42.195Z,72.39
2022-10-26T22:19:10.635Z,71.67
2022-10-26T22:21:40.648Z,71.68
2022-10-26T22:24:09.712Z,71.56
2022-10-26T22:26:39.462Z,72.33
2022-10-26T22:29:07.521Z,72.14
2022-10-26T22:31:38.211Z,71.84
2022-10-26T22:34:08.510Z,71.62
2022-10-26T22:36:36.650Z,72.23
2022-10-26T22:39:04.814Z,72.59
2022-10-26T22:41:32.872Z,72.82
2022-10-26T22:44:02.059Z,72.75
2022-10-26T22:46:30.297Z,73.11
2022-10-26T22:48:59.895Z,72.81
2022-10-26T22:51:29.478Z,72.98
2022-10-26T22:53:59.174Z,73.38
2022-10-26T22:56:28.462Z,73.15
2022-10-26T22:58:56.770Z,72.99
2022-10-26T23:01:28.576Z,72.73
2022-10-26T23:03:57.103Z,72.42
2022-10-26T23:06:26.965Z,72.48
2022-10-26T23:08:55.174Z,71.96
2022-10-26T23:11:24.840Z,71.67
2022-10-26T23:13:54.063Z,72.19
2022-10-26T23:16:22.524Z,72.05
2022-10-26T23:18:53.228Z,71.96
2022-10-26T23:21:22.197Z,71.77
2022-10-26T23:23:50.378Z,71.46
2022-10-26T23:26:20.987Z,71.37
2022-10-26T23:28:49.831Z,71.47
2022-10-26T23:31:19.600Z,70.91
2022-10-26T23:33:47.992Z,69.80
2022-10-26T23:36:17.244Z,69.74
2022-10-26T23:38:45.519Z,69.68
2022-10-26T23:41:13.824Z,69.79
2022-10-26T23:43:41.753Z,69.46
2022-10-26T23:46:09.637Z,69.73
2022-10-26T23:48:37.632Z,69.84
2022-10-26T23:51:05.902Z,70.28
2022-10-26T23:53:35.441Z,70.75
2022-10-26T23:56:03.411Z,70.58
2022-10-26T23:58:31.274Z,71.01
